Huvudsida
METAR-TAF:

METAR-TAF

Flygplatser :

Vilhelmina flygplats

Vilhelmina, Sverige

latitud: 64-34-44N, longitud: 016-50-00E, höjd: 347 m

Aktuellt väderrapport

Denna rapport gjordes för 30 minuter sedan, klockan 18:50 UTC
Vind 5 kt från väst/nordväst
Temperatur -4°C
Fuktighet 80%
Tryck 992 hPa
Sikt 10 km eller mer

METAR: ESNV 231850Z 29005KT 9999 NSC M04/M07 Q0992

Tid: 21:20 (19:20 UTC)


TAF: saknas

Aktuella väderrapporter och prognoser från 4000 flygplatser (METAR- och TAF-rapporter).

De tillgängliga stationerna syns som gula och röda prickar på kartan.

För musen över prickarna för att se namnen på stationerna.

Klicka sedan för att få väderrapporter och prognoser.

För att ändra kartan: Klicka på de gröna knapparna med ett svart kors på för att zooma in; den gröna knappen med ett streck på för att zooma ut; eller på de gröna pilarna för angränsande kartor.


METAR-TAF: